Time;durP1;ratioP1;P1;durP2;ratioP2;P2;SDS_P1;SDS_P2;PMS_P1;PMS_P2;Temp;Humidity;BMP_temperature;BMP_pressure;BME280_temperature;BME280_humidity;BME280_pressure;Samples;Min_cycle;Max_cycle;Signal;HPM_P1;HPM_P2
2022/12/07 00:01:21;;;;;;;9.25;5.38;;;;;;;;;;5077574;28;20049;-79
2022/12/07 00:03:49;;;;;;;12.43;6.00;;;;;;;;;;5084634;28;20068;-80
2022/12/07 00:06:17;;;;;;;17.85;5.50;;;;;;;;;;5082861;28;20053;-80
2022/12/07 00:08:45;;;;;;;14.73;5.70;;;;;;;;;;5081511;28;20104;-79
2022/12/07 00:11:14;;;;;;;15.15;5.78;;;;;;;;;;5091935;28;20076;-80
2022/12/07 00:13:43;;;;;;;16.75;5.35;;;;;;;;;;5073000;28;20049;-80
2022/12/07 00:16:12;;;;;;;11.98;6.07;;;;;;;;;;5086346;28;20049;-79
2022/12/07 00:18:40;;;;;;;14.40;5.30;;;;;;;;;;5088570;28;20555;-79
2022/12/07 00:21:10;;;;;;;13.95;5.53;;;;;;;;;;5083177;28;20057;-79
2022/12/07 00:23:38;;;;;;;12.20;5.13;;;;;;;;;;5082483;28;20080;-79
2022/12/07 00:26:06;;;;;;;10.90;5.05;;;;;;;;;;5085058;28;20049;-80
2022/12/07 00:28:34;;;;;;;10.13;5.03;;;;;;;;;;5088344;28;20124;-79
2022/12/07 00:31:06;;;;;;;9.43;4.55;;;;;;;;;;5083332;28;20033;-79
2022/12/07 00:33:34;;;;;;;11.35;4.72;;;;;;;;;;5082974;28;20093;-80
2022/12/07 00:36:03;;;;;;;14.57;4.95;;;;;;;;;;5060985;28;21191;-79
2022/12/07 00:38:31;;;;;;;7.60;4.60;;;;;;;;;;5086726;28;20619;-80
2022/12/07 00:40:59;;;;;;;19.13;5.18;;;;;;;;;;5090890;28;20053;-79
2022/12/07 00:43:27;;;;;;;13.77;5.18;;;;;;;;;;5067501;28;20064;-79
2022/12/07 00:45:55;;;;;;;13.25;4.72;;;;;;;;;;5079996;28;20064;-79
2022/12/07 00:48:22;;;;;;;10.50;5.07;;;;;;;;;;5083610;28;20071;-79
2022/12/07 00:50:50;;;;;;;17.50;5.32;;;;;;;;;;5081936;28;20063;-79
2022/12/07 00:53:18;;;;;;;13.70;5.28;;;;;;;;;;5082937;28;20645;-79
2022/12/07 00:55:45;;;;;;;14.43;4.82;;;;;;;;;;5074618;28;20431;-79
2022/12/07 00:58:13;;;;;;;13.52;4.80;;;;;;;;;;5081774;28;20076;-81
2022/12/07 01:00:40;;;;;;;10.98;4.80;;;;;;;;;;5082379;28;20052;-79
2022/12/07 01:03:10;;;;;;;11.75;4.57;;;;;;;;;;5079472;28;20081;-79
2022/12/07 01:05:52;;;;;;;12.32;4.75;;;;;;;;;;5075402;28;20104;-79
2022/12/07 01:08:20;;;;;;;16.33;4.65;;;;;;;;;;5057050;28;20747;-79
2022/12/07 01:10:47;;;;;;;11.23;4.40;;;;;;;;;;5076855;28;20108;-80
2022/12/07 01:13:15;;;;;;;13.88;4.22;;;;;;;;;;5081461;28;20558;-80
2022/12/07 01:15:44;;;;;;;11.57;3.97;;;;;;;;;;5086376;28;20072;-80
2022/12/07 01:18:11;;;;;;;12.02;3.83;;;;;;;;;;5081863;28;20053;-80
2022/12/07 01:20:40;;;;;;;11.25;3.25;;;;;;;;;;5090579;28;20044;-79
2022/12/07 01:23:07;;;;;;;9.88;3.47;;;;;;;;;;5067025;28;20072;-80
2022/12/07 01:25:34;;;;;;;9.98;3.60;;;;;;;;;;5063644;28;20069;-79
2022/12/07 01:28:04;;;;;;;19.92;4.07;;;;;;;;;;5067791;28;20782;-79
2022/12/07 01:30:31;;;;;;;18.08;3.40;;;;;;;;;;5074588;28;20500;-80
2022/12/07 01:32:59;;;;;;;12.95;3.70;;;;;;;;;;5064967;28;20060;-80
2022/12/07 01:35:26;;;;;;;13.05;3.92;;;;;;;;;;5064032;28;20119;-79
2022/12/07 01:37:53;;;;;;;10.40;3.60;;;;;;;;;;5061640;28;20045;-79
2022/12/07 01:40:21;;;;;;;6.70;3.47;;;;;;;;;;5066428;28;20045;-79
2022/12/07 01:42:48;;;;;;;6.88;3.05;;;;;;;;;;5065160;28;20104;-79
2022/12/07 01:45:18;;;;;;;12.32;3.55;;;;;;;;;;5065038;28;20041;-79
2022/12/07 01:47:49;;;;;;;9.85;3.35;;;;;;;;;;5066264;28;20053;-79
2022/12/07 01:50:16;;;;;;;7.97;2.85;;;;;;;;;;5069771;28;20084;-79
2022/12/07 01:52:45;;;;;;;6.30;2.70;;;;;;;;;;5065138;28;20045;-79
2022/12/07 01:55:14;;;;;;;7.70;2.50;;;;;;;;;;5068852;28;20044;-79
2022/12/07 01:57:45;;;;;;;10.23;3.15;;;;;;;;;;5075194;28;20045;-79
2022/12/07 02:00:12;;;;;;;13.27;3.45;;;;;;;;;;5065552;28;20075;-79
2022/12/07 02:02:44;;;;;;;5.55;2.92;;;;;;;;;;5063583;28;20061;-79
2022/12/07 02:05:12;;;;;;;16.60;2.95;;;;;;;;;;5064833;28;20092;-79
2022/12/07 02:07:51;;;;;;;15.27;2.97;;;;;;;;;;5071544;28;20058;-79
2022/12/07 02:10:22;;;;;;;6.70;2.70;;;;;;;;;;5066656;28;20058;-79
2022/12/07 02:12:50;;;;;;;14.43;3.08;;;;;;;;;;5072550;28;21168;-79
2022/12/07 02:15:21;;;;;;;7.80;2.85;;;;;;;;;;5071711;28;20040;-79
2022/12/07 02:18:01;;;;;;;8.82;3.28;;;;;;;;;;5065834;28;20065;-79
2022/12/07 02:20:43;;;;;;;7.70;3.00;;;;;;;;;;5058651;28;20132;-80
2022/12/07 02:23:13;;;;;;;10.75;3.20;;;;;;;;;;5080901;28;20049;-79
2022/12/07 02:25:49;;;;;;;10.85;2.45;;;;;;;;;;5083727;28;20049;-79
2022/12/07 02:28:22;;;;;;;6.45;2.70;;;;;;;;;;5077478;28;20056;-79
2022/12/07 02:30:50;;;;;;;15.60;3.42;;;;;;;;;;5084100;28;20080;-80
2022/12/07 02:33:38;;;;;;;9.70;3.25;;;;;;;;;;5075505;28;20049;-80
2022/12/07 02:36:08;;;;;;;10.95;3.00;;;;;;;;;;5075677;28;20063;-79
2022/12/07 02:38:39;;;;;;;11.40;2.80;;;;;;;;;;5080289;28;21848;-80
2022/12/07 02:41:10;;;;;;;12.82;2.80;;;;;;;;;;5086164;28;20048;-79
2022/12/07 02:43:43;;;;;;;7.68;2.67;;;;;;;;;;5082879;28;20537;-79
2022/12/07 02:46:26;;;;;;;9.20;2.80;;;;;;;;;;5069570;28;20080;-79
2022/12/07 02:51:42;;;;;;;9.50;2.80;;;;;;;;;;5074255;28;20072;-79
2022/12/07 02:54:13;;;;;;;6.97;2.60;;;;;;;;;;5081150;28;20109;-79
2022/12/07 02:56:48;;;;;;;8.20;2.60;;;;;;;;;;5067149;28;20138;-80
2022/12/07 02:59:24;;;;;;;17.75;3.30;;;;;;;;;;5077718;28;20136;-79
2022/12/07 03:02:06;;;;;;;23.63;3.10;;;;;;;;;;5077849;28;20495;-79
2022/12/07 03:04:53;;;;;;;10.65;3.00;;;;;;;;;;5075941;28;20045;-79
2022/12/07 03:07:23;;;;;;;13.95;3.40;;;;;;;;;;5061689;28;20045;-79
2022/12/07 03:10:02;;;;;;;16.10;2.88;;;;;;;;;;5075482;28;20055;-79
2022/12/07 03:12:36;;;;;;;13.65;2.85;;;;;;;;;;5075865;28;20045;-80
2022/12/07 03:15:09;;;;;;;14.23;2.53;;;;;;;;;;5077625;28;20499;-79
2022/12/07 03:17:39;;;;;;;5.18;2.58;;;;;;;;;;5077174;28;20276;-79
2022/12/07 03:20:08;;;;;;;4.07;2.25;;;;;;;;;;5079992;28;20107;-79
2022/12/07 03:22:38;;;;;;;10.38;2.40;;;;;;;;;;5073958;28;20111;-79
2022/12/07 03:25:09;;;;;;;14.10;2.53;;;;;;;;;;5088277;28;20921;-79
2022/12/07 03:27:40;;;;;;;7.10;2.20;;;;;;;;;;5085860;28;20060;-80
2022/12/07 03:30:09;;;;;;;13.00;2.92;;;;;;;;;;5079400;28;20053;-79
2022/12/07 03:32:39;;;;;;;11.15;2.65;;;;;;;;;;5076543;28;20080;-80
2022/12/07 03:35:06;;;;;;;7.07;2.30;;;;;;;;;;5075348;28;20103;-80
2022/12/07 03:37:34;;;;;;;5.38;2.15;;;;;;;;;;5074234;28;20103;-80
2022/12/07 03:40:16;;;;;;;8.45;2.00;;;;;;;;;;5077130;28;20082;-80
2022/12/07 03:42:44;;;;;;;10.45;2.72;;;;;;;;;;5074763;28;20140;-79
2022/12/07 03:45:13;;;;;;;13.25;2.40;;;;;;;;;;5084517;28;20080;-80
2022/12/07 03:47:59;;;;;;;7.45;2.15;;;;;;;;;;5082809;28;20108;-80
2022/12/07 03:50:29;;;;;;;5.30;1.95;;;;;;;;;;5079060;28;20105;-80
2022/12/07 03:52:58;;;;;;;12.50;2.10;;;;;;;;;;5084715;28;20053;-79
2022/12/07 03:55:30;;;;;;;12.63;2.17;;;;;;;;;;5086908;28;20059;-79
2022/12/07 03:58:00;;;;;;;9.07;2.45;;;;;;;;;;5087299;28;20056;-80
2022/12/07 04:00:28;;;;;;;8.15;2.10;;;;;;;;;;5083997;28;20052;-80
2022/12/07 04:02:56;;;;;;;8.60;2.17;;;;;;;;;;5074209;28;20059;-79
2022/12/07 04:05:23;;;;;;;10.27;2.13;;;;;;;;;;5088436;28;20048;-81
2022/12/07 04:07:50;;;;;;;7.25;2.00;;;;;;;;;;5080560;28;20049;-79
2022/12/07 04:10:21;;;;;;;8.85;2.25;;;;;;;;;;5088457;28;20056;-80
2022/12/07 04:12:49;;;;;;;7.13;1.80;;;;;;;;;;5082224;28;20041;-79
2022/12/07 04:15:16;;;;;;;12.52;2.20;;;;;;;;;;5081194;28;20099;-79
2022/12/07 04:17:43;;;;;;;6.50;1.70;;;;;;;;;;5078399;28;20049;-80
2022/12/07 04:20:11;;;;;;;15.30;1.92;;;;;;;;;;5066988;28;20084;-79
2022/12/07 04:22:44;;;;;;;7.97;1.90;;;;;;;;;;5083667;28;20080;-80
2022/12/07 04:25:11;;;;;;;10.30;1.83;;;;;;;;;;5086176;28;20025;-79
2022/12/07 04:27:38;;;;;;;12.55;1.95;;;;;;;;;;5078700;28;20734;-79
2022/12/07 04:30:06;;;;;;;11.45;2.20;;;;;;;;;;5061803;28;20053;-79
2022/12/07 04:32:33;;;;;;;4.45;1.67;;;;;;;;;;5079315;28;20483;-79
2022/12/07 04:35:01;;;;;;;6.93;1.90;;;;;;;;;;5084476;28;20045;-80
2022/12/07 04:37:28;;;;;;;14.30;1.92;;;;;;;;;;5082603;28;20047;-79
2022/12/07 04:39:55;;;;;;;7.78;1.67;;;;;;;;;;5084883;28;20049;-80
2022/12/07 04:42:22;;;;;;;8.60;1.35;;;;;;;;;;5082300;28;20059;-79
2022/12/07 04:44:50;;;;;;;13.10;2.25;;;;;;;;;;5078262;28;20060;-82
2022/12/07 04:47:19;;;;;;;9.07;1.67;;;;;;;;;;5068264;28;20052;-79
2022/12/07 04:49:47;;;;;;;7.07;2.00;;;;;;;;;;5089970;28;20053;-80
2022/12/07 04:52:14;;;;;;;8.02;1.73;;;;;;;;;;5081150;28;20037;-79
2022/12/07 04:54:41;;;;;;;5.38;1.80;;;;;;;;;;5072821;28;20046;-79
2022/12/07 04:57:08;;;;;;;10.48;1.67;;;;;;;;;;5072273;28;20060;-79
2022/12/07 04:59:36;;;;;;;3.72;1.50;;;;;;;;;;5091038;28;20091;-80
2022/12/07 05:02:14;;;;;;;17.00;2.28;;;;;;;;;;5085345;28;20068;-80
2022/12/07 05:04:42;;;;;;;5.68;1.58;;;;;;;;;;5084758;28;20053;-79
2022/12/07 05:07:09;;;;;;;8.77;1.42;;;;;;;;;;5080716;28;20075;-79
2022/12/07 05:09:36;;;;;;;11.13;1.92;;;;;;;;;;5083272;28;20419;-79
2022/12/07 05:12:03;;;;;;;14.05;1.83;;;;;;;;;;5083110;28;20509;-79
2022/12/07 05:14:31;;;;;;;8.13;1.13;;;;;;;;;;5089259;28;20096;-79
2022/12/07 05:16:58;;;;;;;3.97;1.30;;;;;;;;;;5095454;28;20139;-80
2022/12/07 05:19:26;;;;;;;6.20;1.13;;;;;;;;;;5079221;28;20045;-80
2022/12/07 05:21:53;;;;;;;6.60;1.25;;;;;;;;;;5083413;28;20045;-80
2022/12/07 05:24:21;;;;;;;7.25;1.42;;;;;;;;;;5094121;28;20086;-79
2022/12/07 05:26:48;;;;;;;8.07;1.08;;;;;;;;;;5087212;28;20097;-79
2022/12/07 05:29:16;;;;;;;4.75;1.10;;;;;;;;;;5090865;28;20083;-80
2022/12/07 05:31:44;;;;;;;8.50;1.20;;;;;;;;;;5084365;28;20090;-79
2022/12/07 05:34:13;;;;;;;7.57;1.30;;;;;;;;;;5072235;28;20053;-80
2022/12/07 05:36:40;;;;;;;12.00;1.45;;;;;;;;;;5091008;28;20033;-80
2022/12/07 05:39:07;;;;;;;8.60;1.20;;;;;;;;;;5086024;28;20084;-79
2022/12/07 05:44:21;;;;;;;5.03;0.93;;;;;;;;;;5084850;28;20118;-80
2022/12/07 05:46:48;;;;;;;4.45;1.20;;;;;;;;;;5086850;28;20122;-79
2022/12/07 05:49:15;;;;;;;7.75;1.30;;;;;;;;;;5084513;28;20052;-79
2022/12/07 05:51:43;;;;;;;10.07;1.33;;;;;;;;;;5082967;28;20063;-79
2022/12/07 05:54:11;;;;;;;5.55;1.08;;;;;;;;;;5091871;28;20049;-80
2022/12/07 05:56:39;;;;;;;7.90;1.00;;;;;;;;;;5085937;28;20825;-79
2022/12/07 05:59:25;;;;;;;9.75;1.30;;;;;;;;;;5082872;28;20103;-80
2022/12/07 06:02:06;;;;;;;4.95;1.30;;;;;;;;;;5086535;28;20144;-79
2022/12/07 06:04:36;;;;;;;4.90;1.38;;;;;;;;;;5066607;28;20100;-79
2022/12/07 06:07:04;;;;;;;16.77;1.88;;;;;;;;;;5093153;28;20053;-79
2022/12/07 06:09:32;;;;;;;12.52;1.50;;;;;;;;;;5086597;28;20045;-79
2022/12/07 06:14:46;;;;;;;9.75;1.73;;;;;;;;;;5082995;28;20053;-79
2022/12/07 06:17:13;;;;;;;8.82;1.65;;;;;;;;;;5077276;28;20110;-80
2022/12/07 06:19:52;;;;;;;11.52;2.30;;;;;;;;;;5080215;28;20053;-79
2022/12/07 06:22:43;;;;;;;4.28;1.98;;;;;;;;;;5061853;28;20067;-80
2022/12/07 06:25:11;;;;;;;5.50;1.95;;;;;;;;;;5081885;28;20043;-79
2022/12/07 06:27:41;;;;;;;8.63;1.90;;;;;;;;;;5083082;28;20074;-80
2022/12/07 06:30:08;;;;;;;7.65;2.08;;;;;;;;;;5080662;28;20045;-79
2022/12/07 06:32:37;;;;;;;10.32;2.45;;;;;;;;;;5082613;28;20052;-79
2022/12/07 06:35:05;;;;;;;9.57;2.70;;;;;;;;;;5082307;28;20065;-80
2022/12/07 06:37:32;;;;;;;9.68;3.10;;;;;;;;;;5082153;28;20045;-80
2022/12/07 06:40:00;;;;;;;9.23;2.78;;;;;;;;;;5081550;28;20045;-79
2022/12/07 06:42:29;;;;;;;9.43;2.33;;;;;;;;;;5078790;28;20053;-79
2022/12/07 06:44:56;;;;;;;13.38;2.75;;;;;;;;;;5077918;28;20503;-80
2022/12/07 06:47:27;;;;;;;10.82;2.20;;;;;;;;;;5076628;28;20112;-79
2022/12/07 06:50:09;;;;;;;7.70;1.92;;;;;;;;;;5077054;28;20052;-79
2022/12/07 06:52:39;;;;;;;4.22;1.98;;;;;;;;;;5078093;28;20068;-79
2022/12/07 06:55:20;;;;;;;5.97;2.00;;;;;;;;;;5076161;28;20045;-79
2022/12/07 06:57:48;;;;;;;7.55;2.38;;;;;;;;;;5075322;28;20116;-80
2022/12/07 07:00:18;;;;;;;9.90;1.98;;;;;;;;;;5078913;28;21071;-80
2022/12/07 07:02:51;;;;;;;6.25;1.55;;;;;;;;;;5078367;28;20044;-79
2022/12/07 07:05:21;;;;;;;14.98;2.58;;;;;;;;;;5083518;28;20049;-80
2022/12/07 07:07:49;;;;;;;11.43;1.90;;;;;;;;;;5084412;28;20920;-80
2022/12/07 07:10:37;;;;;;;2.83;1.60;;;;;;;;;;5078124;28;20117;-80
2022/12/07 07:13:23;;;;;;;7.40;1.73;;;;;;;;;;5078895;28;20053;-79
2022/12/07 07:15:51;;;;;;;10.75;1.75;;;;;;;;;;5091896;28;20060;-80
2022/12/07 07:18:21;;;;;;;5.25;1.77;;;;;;;;;;5063098;28;21008;-79
2022/12/07 07:20:52;;;;;;;8.98;1.98;;;;;;;;;;5077795;28;20163;-80
2022/12/07 07:23:25;;;;;;;16.77;2.30;;;;;;;;;;5077416;28;20143;-80
2022/12/07 07:25:53;;;;;;;5.72;1.80;;;;;;;;;;5079853;28;20466;-80
2022/12/07 07:28:21;;;;;;;8.10;2.17;;;;;;;;;;5077877;28;20064;-79
2022/12/07 07:30:56;;;;;;;12.73;1.85;;;;;;;;;;5075486;28;20060;-80
2022/12/07 07:33:24;;;;;;;3.92;1.77;;;;;;;;;;5089501;28;20048;-80
2022/12/07 07:35:51;;;;;;;10.25;1.77;;;;;;;;;;5064925;28;20067;-80
2022/12/07 07:38:20;;;;;;;4.78;1.70;;;;;;;;;;5078978;28;20068;-80
2022/12/07 07:40:48;;;;;;;8.38;2.03;;;;;;;;;;5067562;28;20041;-80
2022/12/07 07:43:15;;;;;;;12.02;2.20;;;;;;;;;;5059325;28;20068;-80
2022/12/07 07:45:43;;;;;;;8.30;1.65;;;;;;;;;;5084226;28;20778;-80
2022/12/07 07:48:34;;;;;;;6.38;1.73;;;;;;;;;;5078876;28;20069;-80
2022/12/07 07:51:06;;;;;;;15.32;2.45;;;;;;;;;;5073034;28;20703;-80
2022/12/07 07:53:37;;;;;;;6.72;2.10;;;;;;;;;;5085762;28;20033;-79
2022/12/07 07:56:04;;;;;;;3.45;1.67;;;;;;;;;;5083322;28;20036;-80
2022/12/07 07:58:31;;;;;;;14.98;2.67;;;;;;;;;;5080096;28;20103;-80
2022/12/07 08:01:04;;;;;;;6.00;2.20;;;;;;;;;;5084887;28;20041;-80
2022/12/07 08:03:35;;;;;;;4.78;1.70;;;;;;;;;;5074743;28;20049;-79
2022/12/07 08:06:03;;;;;;;6.80;1.80;;;;;;;;;;5064699;28;20053;-80
2022/12/07 08:08:30;;;;;;;5.43;1.83;;;;;;;;;;5079907;28;21012;-80
2022/12/07 08:11:01;;;;;;;9.93;2.67;;;;;;;;;;5062593;28;20049;-80
2022/12/07 08:13:29;;;;;;;7.20;1.80;;;;;;;;;;5069010;28;20061;-78
2022/12/07 08:15:58;;;;;;;7.78;2.30;;;;;;;;;;5077723;28;20071;-78
2022/12/07 08:18:26;;;;;;;7.72;2.00;;;;;;;;;;5071186;28;20106;-78
2022/12/07 08:20:59;;;;;;;14.63;2.22;;;;;;;;;;5061968;28;20053;-78
2022/12/07 08:23:27;;;;;;;8.75;1.95;;;;;;;;;;5061521;28;20045;-81
2022/12/07 08:26:06;;;;;;;5.30;1.75;;;;;;;;;;5078267;28;20063;-80
2022/12/07 08:28:34;;;;;;;9.75;2.03;;;;;;;;;;5075436;28;20484;-78
2022/12/07 08:31:06;;;;;;;13.60;2.17;;;;;;;;;;5069526;28;20044;-79
2022/12/07 08:33:34;;;;;;;8.63;2.30;;;;;;;;;;5070336;28;20055;-79
2022/12/07 08:36:02;;;;;;;8.02;2.03;;;;;;;;;;5081642;28;20045;-79
2022/12/07 08:38:29;;;;;;;6.95;1.70;;;;;;;;;;5081043;28;20049;-79
2022/12/07 08:40:59;;;;;;;10.15;2.15;;;;;;;;;;5080949;28;20075;-79
2022/12/07 08:43:27;;;;;;;9.52;1.60;;;;;;;;;;5077464;28;20061;-79
2022/12/07 08:46:00;;;;;;;8.88;1.65;;;;;;;;;;5082754;28;20044;-79
2022/12/07 08:48:27;;;;;;;10.77;2.00;;;;;;;;;;5084493;28;20052;-79
2022/12/07 08:50:54;;;;;;;7.15;1.52;;;;;;;;;;5081577;28;20465;-79
2022/12/07 08:53:22;;;;;;;9.73;2.05;;;;;;;;;;5086221;28;20053;-80
2022/12/07 08:55:50;;;;;;;5.80;1.60;;;;;;;;;;5068551;28;20115;-80
2022/12/07 08:58:23;;;;;;;6.60;1.75;;;;;;;;;;5080806;28;20080;-79
2022/12/07 09:00:50;;;;;;;10.77;2.10;;;;;;;;;;5087006;28;20071;-79
2022/12/07 09:03:18;;;;;;;7.65;1.90;;;;;;;;;;5078626;28;20056;-79
2022/12/07 09:05:46;;;;;;;8.02;1.50;;;;;;;;;;5073391;28;20033;-79
2022/12/07 09:08:14;;;;;;;10.70;1.90;;;;;;;;;;5081997;28;20049;-80
2022/12/07 09:10:45;;;;;;;10.57;1.60;;;;;;;;;;5081892;28;20083;-80
2022/12/07 09:13:12;;;;;;;10.35;1.60;;;;;;;;;;5064082;28;20037;-79
2022/12/07 09:15:43;;;;;;;6.80;1.13;;;;;;;;;;5079198;28;20120;-79
2022/12/07 09:18:14;;;;;;;12.00;2.15;;;;;;;;;;5083893;28;20051;-80
2022/12/07 09:20:41;;;;;;;2.70;1.30;;;;;;;;;;5078108;28;20061;-79
2022/12/07 09:23:09;;;;;;;3.63;1.50;;;;;;;;;;5080951;28;20045;-79
2022/12/07 09:25:37;;;;;;;12.68;2.00;;;;;;;;;;5069626;28;20115;-79
2022/12/07 09:28:04;;;;;;;6.28;1.50;;;;;;;;;;5077932;28;20087;-79
2022/12/07 09:30:32;;;;;;;6.60;1.65;;;;;;;;;;5083961;28;20049;-79
2022/12/07 09:33:20;;;;;;;8.88;1.92;;;;;;;;;;5078663;28;20084;-79
2022/12/07 09:35:53;;;;;;;7.35;1.60;;;;;;;;;;5089815;28;21240;-79
2022/12/07 09:38:21;;;;;;;7.97;1.70;;;;;;;;;;5074552;28;21144;-80
2022/12/07 09:40:49;;;;;;;9.82;1.70;;;;;;;;;;5076144;28;20053;-79
2022/12/07 09:43:18;;;;;;;6.10;1.70;;;;;;;;;;5079196;28;20049;-79
2022/12/07 09:45:46;;;;;;;6.45;1.52;;;;;;;;;;5084442;28;20089;-80
2022/12/07 09:48:18;;;;;;;11.68;2.03;;;;;;;;;;5085119;28;20044;-79
2022/12/07 09:50:46;;;;;;;4.82;1.60;;;;;;;;;;5083132;28;20439;-79
2022/12/07 09:53:34;;;;;;;3.42;1.45;;;;;;;;;;5083442;28;20974;-79
2022/12/07 09:56:02;;;;;;;9.50;1.38;;;;;;;;;;5082087;28;20029;-79
2022/12/07 09:58:30;;;;;;;8.45;1.98;;;;;;;;;;5083175;28;20045;-79
2022/12/07 10:01:00;;;;;;;9.57;1.40;;;;;;;;;;5079597;28;20045;-79
2022/12/07 10:03:29;;;;;;;5.93;1.63;;;;;;;;;;5081740;28;20045;-79
2022/12/07 10:05:59;;;;;;;9.10;1.92;;;;;;;;;;5086118;28;20581;-79
2022/12/07 10:08:34;;;;;;;8.25;1.38;;;;;;;;;;5073874;28;20056;-79
2022/12/07 10:11:10;;;;;;;6.25;1.77;;;;;;;;;;5082411;28;20091;-79
2022/12/07 10:13:39;;;;;;;6.88;1.77;;;;;;;;;;5079090;28;20045;-79
2022/12/07 10:16:27;;;;;;;4.95;1.88;;;;;;;;;;5063899;28;20049;-80
2022/12/07 10:18:55;;;;;;;12.77;2.30;;;;;;;;;;5083509;28;20779;-79
2022/12/07 10:21:26;;;;;;;6.00;1.58;;;;;;;;;;5059612;28;20740;-80
2022/12/07 10:24:06;;;;;;;4.32;1.50;;;;;;;;;;5059060;28;20057;-79
2022/12/07 10:27:02;;;;;;;10.32;2.00;;;;;;;;;;5057934;28;20052;-79
2022/12/07 10:29:35;;;;;;;11.80;2.10;;;;;;;;;;5054832;28;20079;-79
2022/12/07 10:32:03;;;;;;;6.38;1.80;;;;;;;;;;5065227;28;20053;-79
2022/12/07 10:34:36;;;;;;;5.50;1.98;;;;;;;;;;5061846;28;20034;-79
2022/12/07 10:37:25;;;;;;;6.75;1.90;;;;;;;;;;5060716;28;20053;-79
2022/12/07 10:39:56;;;;;;;7.63;1.98;;;;;;;;;;5056678;28;20113;-79
2022/12/07 10:42:24;;;;;;;8.88;1.80;;;;;;;;;;5060825;28;20054;-79
2022/12/07 10:45:09;;;;;;;7.25;1.92;;;;;;;;;;5063764;28;20072;-79
2022/12/07 10:47:43;;;;;;;7.70;1.90;;;;;;;;;;5059779;28;20049;-79
2022/12/07 10:50:26;;;;;;;5.15;1.58;;;;;;;;;;5058189;28;20137;-79
2022/12/07 10:52:56;;;;;;;13.05;1.98;;;;;;;;;;5058996;28;20500;-79
2022/12/07 10:55:29;;;;;;;9.00;2.17;;;;;;;;;;5072000;28;20102;-79
2022/12/07 10:57:59;;;;;;;5.82;1.75;;;;;;;;;;5063320;28;20037;-79
2022/12/07 11:00:30;;;;;;;9.63;2.53;;;;;;;;;;5052878;28;20056;-79
2022/12/07 11:03:16;;;;;;;7.40;1.80;;;;;;;;;;5060771;28;20051;-79
2022/12/07 11:05:49;;;;;;;11.40;1.98;;;;;;;;;;5059600;28;20044;-79
2022/12/07 11:08:20;;;;;;;5.10;1.65;;;;;;;;;;5060780;28;20088;-79
2022/12/07 11:11:19;;;;;;;5.10;1.65;;;;;;;;;;5054626;28;20053;-79
2022/12/07 11:14:07;;;;;;;6.50;1.60;;;;;;;;;;5016252;28;20052;-79
2022/12/07 11:16:56;;;;;;;6.28;1.52;;;;;;;;;;5063013;28;20136;-79
2022/12/07 11:19:28;;;;;;;10.38;1.45;;;;;;;;;;5053013;28;20130;-79
2022/12/07 11:21:59;;;;;;;3.90;1.30;;;;;;;;;;5063069;28;20075;-79
2022/12/07 11:24:34;;;;;;;5.90;1.45;;;;;;;;;;5082844;28;20077;-79
2022/12/07 11:27:08;;;;;;;9.65;1.42;;;;;;;;;;5076335;28;20053;-79
2022/12/07 11:29:39;;;;;;;6.18;1.98;;;;;;;;;;5080061;28;20136;-79
2022/12/07 11:32:15;;;;;;;3.65;1.27;;;;;;;;;;5078231;28;20041;-79
2022/12/07 11:34:59;;;;;;;7.65;1.65;;;;;;;;;;5072551;28;20049;-79
2022/12/07 11:37:31;;;;;;;3.92;1.42;;;;;;;;;;5078327;28;20054;-79
2022/12/07 11:40:29;;;;;;;7.10;1.30;;;;;;;;;;5079313;28;20037;-79
2022/12/07 11:43:14;;;;;;;8.52;1.40;;;;;;;;;;5074970;28;20060;-79
2022/12/07 11:45:45;;;;;;;8.88;1.48;;;;;;;;;;5076218;28;20056;-79
2022/12/07 11:48:16;;;;;;;3.67;1.20;;;;;;;;;;5085749;28;20132;-79
2022/12/07 11:50:45;;;;;;;6.03;1.15;;;;;;;;;;5074279;28;21234;-79
2022/12/07 11:53:21;;;;;;;6.10;1.63;;;;;;;;;;5080087;28;20139;-79
2022/12/07 11:56:00;;;;;;;6.93;1.50;;;;;;;;;;5083704;28;20537;-79
2022/12/07 11:58:36;;;;;;;2.63;1.02;;;;;;;;;;5084148;28;20052;-79
2022/12/07 12:01:22;;;;;;;9.35;1.60;;;;;;;;;;5080770;28;20141;-79
2022/12/07 12:03:52;;;;;;;8.32;1.42;;;;;;;;;;5078924;28;20045;-79
2022/12/07 12:06:21;;;;;;;6.85;1.30;;;;;;;;;;5080871;28;20052;-80
2022/12/07 12:08:54;;;;;;;9.48;1.20;;;;;;;;;;5062670;28;20044;-79
2022/12/07 12:12:08;;;;;;;6.07;0.75;;;;;;;;;;5063257;28;20041;-79
2022/12/07 12:15:14;;;;;;;7.78;1.00;;;;;;;;;;5065721;28;20095;-79
2022/12/07 12:17:45;;;;;;;2.63;0.93;;;;;;;;;;5087708;28;20055;-79
2022/12/07 12:20:24;;;;;;;5.53;1.65;;;;;;;;;;5077336;28;20077;-79
2022/12/07 12:22:58;;;;;;;5.18;1.05;;;;;;;;;;5085208;28;20072;-79
2022/12/07 12:25:56;;;;;;;6.45;1.23;;;;;;;;;;5085946;28;20107;-81
2022/12/07 12:28:27;;;;;;;8.27;1.33;;;;;;;;;;5065467;28;20053;-79
2022/12/07 12:31:07;;;;;;;14.10;1.85;;;;;;;;;;5080462;28;20049;-79
2022/12/07 12:33:35;;;;;;;3.75;1.08;;;;;;;;;;5080173;28;20072;-79
2022/12/07 12:36:24;;;;;;;11.65;1.17;;;;;;;;;;5071749;28;20068;-79
2022/12/07 12:39:08;;;;;;;4.07;1.15;;;;;;;;;;5071303;28;20128;-79
2022/12/07 12:41:39;;;;;;;3.70;1.05;;;;;;;;;;5073937;28;20053;-80
2022/12/07 12:44:17;;;;;;;4.90;1.20;;;;;;;;;;5067195;28;20053;-80
2022/12/07 12:46:48;;;;;;;9.93;1.67;;;;;;;;;;5046868;28;20052;-79
2022/12/07 12:49:16;;;;;;;10.13;1.42;;;;;;;;;;5073932;28;20140;-80
2022/12/07 12:51:54;;;;;;;10.13;1.33;;;;;;;;;;5071970;28;20055;-80
2022/12/07 12:54:35;;;;;;;7.50;1.48;;;;;;;;;;5075196;28;20095;-79
2022/12/07 12:57:18;;;;;;;3.63;1.20;;;;;;;;;;5077169;28;20052;-80
2022/12/07 12:59:54;;;;;;;8.95;1.65;;;;;;;;;;5071772;28;20059;-80
2022/12/07 13:02:25;;;;;;;7.22;1.23;;;;;;;;;;5076847;28;20900;-80
2022/12/07 13:05:01;;;;;;;6.68;1.20;;;;;;;;;;5075798;28;20049;-79
2022/12/07 13:07:51;;;;;;;6.53;1.40;;;;;;;;;;5069545;28;20045;-80
2022/12/07 13:10:25;;;;;;;5.60;1.10;;;;;;;;;;5054555;28;20053;-80
2022/12/07 13:12:58;;;;;;;5.88;0.93;;;;;;;;;;5071908;28;20099;-79
2022/12/07 13:15:26;;;;;;;;;;;;;;;;;;5048788;28;20054;-79
2022/12/07 13:17:57;;;;;;;2.78;0.95;;;;;;;;;;5075193;28;44517;-79
2022/12/07 13:21:00;;;;;;;2.55;0.70;;;;;;;;;;5070010;28;20041;-79
2022/12/07 13:23:47;;;;;;;2.97;0.70;;;;;;;;;;5003517;28;20055;-80
2022/12/07 13:26:21;;;;;;;4.25;1.27;;;;;;;;;;4990096;28;20113;-80
2022/12/07 13:28:48;;;;;;;4.28;1.40;;;;;;;;;;5009536;28;20058;-80
2022/12/07 13:31:34;;;;;;;2.55;0.70;;;;;;;;;;5007283;28;20058;-80
2022/12/07 13:34:05;;;;;;;5.75;1.02;;;;;;;;;;5015497;28;20538;-80
2022/12/07 13:36:35;;;;;;;5.95;1.38;;;;;;;;;;4992840;28;20027;-80
2022/12/07 13:39:18;;;;;;;6.13;1.65;;;;;;;;;;5009424;28;20098;-80
2022/12/07 13:41:50;;;;;;;6.28;1.55;;;;;;;;;;5015582;28;20050;-80
2022/12/07 13:44:21;;;;;;;5.68;1.08;;;;;;;;;;5009453;28;20287;-80
2022/12/07 13:47:01;;;;;;;10.30;1.67;;;;;;;;;;5007127;28;20050;-79
2022/12/07 13:49:30;;;;;;;6.28;1.25;;;;;;;;;;5005962;28;20042;-80
2022/12/07 13:52:29;;;;;;;8.02;1.45;;;;;;;;;;5006487;28;20058;-80
2022/12/07 13:55:12;;;;;;;7.32;1.42;;;;;;;;;;4985386;28;20113;-80
2022/12/07 13:57:39;;;;;;;7.20;1.10;;;;;;;;;;5038592;28;20037;-80
2022/12/07 14:00:19;;;;;;;8.57;1.63;;;;;;;;;;5075463;28;20115;-80
2022/12/07 14:02:59;;;;;;;6.50;1.15;;;;;;;;;;5072673;28;20087;-80
2022/12/07 14:05:34;;;;;;;10.23;1.42;;;;;;;;;;5074519;28;21465;-80
2022/12/07 14:08:05;;;;;;;5.82;1.38;;;;;;;;;;5052428;28;20060;-80
2022/12/07 14:10:33;;;;;;;8.50;1.35;;;;;;;;;;5071295;28;20049;-80
2022/12/07 14:13:01;;;;;;;7.13;1.17;;;;;;;;;;5072970;28;20083;-80
2022/12/07 14:15:33;;;;;;;6.47;1.67;;;;;;;;;;5066941;28;20140;-80
2022/12/07 14:18:04;;;;;;;4.35;0.98;;;;;;;;;;5069440;28;20048;-80
2022/12/07 14:20:36;;;;;;;4.57;1.20;;;;;;;;;;5044009;28;20053;-80
2022/12/07 14:23:10;;;;;;;7.83;1.57;;;;;;;;;;5070271;28;20115;-80
2022/12/07 14:25:48;;;;;;;8.90;1.20;;;;;;;;;;5054421;28;21407;-80
2022/12/07 14:28:30;;;;;;;9.82;1.50;;;;;;;;;;5074928;28;20537;-80
2022/12/07 14:30:59;;;;;;;4.30;1.50;;;;;;;;;;5045127;28;20132;-80
2022/12/07 14:33:29;;;;;;;6.43;1.50;;;;;;;;;;5065357;28;21962;-80
2022/12/07 14:35:57;;;;;;;6.25;1.25;;;;;;;;;;5073397;28;20045;-80
2022/12/07 14:38:27;;;;;;;8.10;1.60;;;;;;;;;;5069477;28;20057;-79
2022/12/07 14:41:50;;;;;;;6.18;1.40;;;;;;;;;;5075320;28;20055;-80
2022/12/07 14:43:42;;;;;;;5.10;1.05;;;;;;;;;;5072004;28;20044;-80
2022/12/07 14:46:30;;;;;;;3.38;1.20;;;;;;;;;;5072018;28;20677;-80
2022/12/07 14:48:58;;;;;;;7.63;1.25;;;;;;;;;;5076276;28;20051;-80
2022/12/07 14:51:47;;;;;;;4.18;1.60;;;;;;;;;;5077855;28;20053;-80
2022/12/07 14:54:34;;;;;;;6.30;1.17;;;;;;;;;;5071996;28;20049;-80
2022/12/07 14:57:05;;;;;;;4.80;1.38;;;;;;;;;;5075547;28;21185;-80
2022/12/07 14:59:32;;;;;;;4.15;1.20;;;;;;;;;;5072437;28;20061;-80
2022/12/07 15:02:00;;;;;;;4.93;1.30;;;;;;;;;;5071389;28;20060;-81
2022/12/07 15:04:30;;;;;;;3.60;0.80;;;;;;;;;;5071237;28;20057;-80
2022/12/07 15:07:02;;;;;;;4.22;1.15;;;;;;;;;;5066179;28;20076;-80
2022/12/07 15:09:31;;;;;;;8.48;1.08;;;;;;;;;;5058023;28;20059;-80
2022/12/07 15:11:58;;;;;;;2.90;0.98;;;;;;;;;;5077646;28;20501;-80
2022/12/07 15:14:26;;;;;;;2.70;0.90;;;;;;;;;;5076536;28;20102;-80
2022/12/07 15:16:54;;;;;;;5.25;1.20;;;;;;;;;;5074733;28;20052;-80